createdAt,value
2023-03-12T00:01:19.028Z,1.70
2023-03-12T00:03:48.417Z,1.30
2023-03-12T00:06:18.473Z,1.50
2023-03-12T00:08:47.624Z,1.50
2023-03-12T00:11:18.573Z,1.60
2023-03-12T00:13:52.040Z,1.20
2023-03-12T00:16:21.285Z,0.70
2023-03-12T00:18:52.681Z,1.40
2023-03-12T00:21:22.428Z,1.00
2023-03-12T00:23:51.650Z,1.20
2023-03-12T00:26:21.740Z,1.30
2023-03-12T00:28:51.283Z,0.70
2023-03-12T00:31:20.865Z,1.00
2023-03-12T00:33:51.995Z,1.60
2023-03-12T00:36:24.001Z,1.40
2023-03-12T00:38:52.575Z,2.00
2023-03-12T00:41:21.845Z,0.50
2023-03-12T00:43:51.690Z,2.20
2023-03-12T00:46:20.541Z,1.40
2023-03-12T00:51:16.871Z,1.50
2023-03-12T00:53:45.340Z,2.00
2023-03-12T00:56:13.518Z,1.70
2023-03-12T00:58:42.912Z,1.80
2023-03-12T01:01:11.607Z,2.10
2023-03-12T01:03:39.750Z,2.50
2023-03-12T01:06:08.913Z,2.20
2023-03-12T01:11:05.758Z,1.90
2023-03-12T01:13:33.806Z,1.40
2023-03-12T01:16:02.107Z,1.20
2023-03-12T01:18:30.331Z,1.10
2023-03-12T01:20:59.522Z,1.40
2023-03-12T01:23:27.720Z,1.70
2023-03-12T01:25:55.963Z,1.40
2023-03-12T01:28:25.335Z,1.10
2023-03-12T01:30:53.873Z,1.90
2023-03-12T01:33:23.130Z,1.30
2023-03-12T01:35:51.659Z,1.50
2023-03-12T01:38:21.072Z,2.40
2023-03-12T01:40:49.493Z,2.10
2023-03-12T01:43:33.604Z,2.50
2023-03-12T01:46:03.043Z,1.40
2023-03-12T01:48:41.620Z,2.40
2023-03-12T01:51:13.875Z,1.80
2023-03-12T01:53:46.852Z,1.60
2023-03-12T01:56:17.897Z,1.40
2023-03-12T01:58:52.734Z,2.20
2023-03-12T02:01:22.951Z,2.10
2023-03-12T02:03:54.002Z,1.80
2023-03-12T02:06:29.672Z,2.20
2023-03-12T02:09:00.767Z,1.40
2023-03-12T02:11:29.998Z,1.50
2023-03-12T02:13:58.112Z,1.20
2023-03-12T02:16:27.558Z,1.10
2023-03-12T02:18:57.539Z,0.70
2023-03-12T02:21:28.617Z,1.40
2023-03-12T02:24:28.315Z,1.10
2023-03-12T02:26:57.332Z,0.60
2023-03-12T02:29:29.593Z,1.80
2023-03-12T02:32:01.325Z,2.00
2023-03-12T02:34:30.352Z,1.50
2023-03-12T02:36:58.635Z,0.90
2023-03-12T02:39:28.588Z,1.20
2023-03-12T02:41:59.435Z,2.00
2023-03-12T02:44:31.671Z,1.50
2023-03-12T02:47:01.617Z,1.30
2023-03-12T02:49:32.491Z,1.70
2023-03-12T02:52:01.973Z,1.50
2023-03-12T02:54:30.617Z,1.70
2023-03-12T02:56:59.103Z,1.50
2023-03-12T02:59:27.636Z,1.50
2023-03-12T03:01:59.821Z,2.10
2023-03-12T03:04:30.559Z,1.50
2023-03-12T03:06:58.962Z,1.40
2023-03-12T03:09:27.631Z,1.40
2023-03-12T03:14:24.405Z,1.80
2023-03-12T03:16:53.335Z,1.60
2023-03-12T03:19:23.793Z,1.50
2023-03-12T03:21:51.996Z,1.10
2023-03-12T03:24:20.037Z,1.20
2023-03-12T03:26:48.685Z,2.10
2023-03-12T03:29:17.170Z,1.30
2023-03-12T03:34:13.836Z,1.40
2023-03-12T03:36:41.919Z,0.90
2023-03-12T03:39:13.352Z,0.90
2023-03-12T03:41:41.783Z,1.00
2023-03-12T03:44:10.781Z,1.40
2023-03-12T03:49:09.352Z,1.20
2023-03-12T03:51:38.478Z,1.30
2023-03-12T03:54:12.654Z,0.70
2023-03-12T03:56:41.394Z,1.20
2023-03-12T03:59:10.408Z,1.20
2023-03-12T04:01:39.707Z,1.30
2023-03-12T04:04:08.096Z,2.20
2023-03-12T04:06:36.392Z,1.30
2023-03-12T04:09:04.698Z,1.50
2023-03-12T04:11:33.176Z,1.40
2023-03-12T04:16:31.933Z,1.30
2023-03-12T04:19:00.371Z,1.20
2023-03-12T04:21:28.553Z,2.00
2023-03-12T04:23:56.639Z,1.10
2023-03-12T04:26:27.393Z,2.20
2023-03-12T04:28:56.082Z,1.20
2023-03-12T04:31:24.479Z,1.50
2023-03-12T04:33:52.841Z,1.20
2023-03-12T04:36:23.696Z,1.20
2023-03-12T04:38:52.179Z,1.30
2023-03-12T04:41:23.547Z,1.10
2023-03-12T04:43:55.718Z,1.50
2023-03-12T04:46:23.827Z,1.30
2023-03-12T04:48:52.465Z,1.60
2023-03-12T04:51:20.516Z,1.10
2023-03-12T04:53:49.066Z,1.60
2023-03-12T04:56:17.346Z,1.60
2023-03-12T04:58:45.832Z,1.20
2023-03-12T05:01:32.376Z,1.50
2023-03-12T05:04:04.248Z,1.50
2023-03-12T05:06:33.444Z,1.10
2023-03-12T05:09:01.600Z,2.40
2023-03-12T05:11:30.394Z,4.50
2023-03-12T05:13:58.453Z,2.80
2023-03-12T05:16:26.929Z,2.50
2023-03-12T05:18:55.116Z,2.00
2023-03-12T05:23:54.407Z,1.60
2023-03-12T05:26:29.472Z,4.00
2023-03-12T05:29:04.179Z,2.60
2023-03-12T05:31:35.191Z,1.80
2023-03-12T05:34:05.159Z,2.50
2023-03-12T05:36:34.215Z,3.00
2023-03-12T05:39:02.648Z,2.40
2023-03-12T05:41:32.021Z,4.10
2023-03-12T05:44:05.568Z,3.10
2023-03-12T05:46:33.710Z,3.90
2023-03-12T05:49:02.055Z,6.60
2023-03-12T05:51:32.419Z,10.40
2023-03-12T05:54:01.646Z,7.50
2023-03-12T05:56:30.313Z,17.00
2023-03-12T05:58:58.409Z,7.90
2023-03-12T06:01:29.048Z,6.90
2023-03-12T06:03:59.460Z,3.80
2023-03-12T06:06:30.831Z,4.60
2023-03-12T06:08:59.304Z,7.90
2023-03-12T06:11:27.693Z,2.70
2023-03-12T06:13:57.286Z,12.90
2023-03-12T06:16:27.867Z,14.90
2023-03-12T06:18:59.508Z,7.80
2023-03-12T06:21:33.499Z,5.50
2023-03-12T06:24:02.956Z,7.90
2023-03-12T06:26:37.881Z,5.20
2023-03-12T06:29:06.379Z,4.30
2023-03-12T06:31:37.243Z,1.90
2023-03-12T06:34:06.631Z,3.90
2023-03-12T06:36:34.722Z,3.90
2023-03-12T06:39:06.307Z,3.80
2023-03-12T06:41:34.440Z,3.30
2023-03-12T06:44:06.284Z,3.50
2023-03-12T06:46:35.109Z,3.50
2023-03-12T06:49:03.193Z,2.30
2023-03-12T06:51:31.480Z,2.60
2023-03-12T06:54:02.353Z,2.60
2023-03-12T06:56:31.637Z,2.40
2023-03-12T06:58:59.800Z,2.00
2023-03-12T07:01:27.877Z,2.00
2023-03-12T07:03:56.238Z,1.70
2023-03-12T07:06:25.294Z,1.30
2023-03-12T07:08:53.453Z,1.60
2023-03-12T07:11:21.727Z,4.00
2023-03-12T07:13:50.031Z,2.30
2023-03-12T07:16:18.241Z,12.60
2023-03-12T07:18:46.389Z,3.00
2023-03-12T07:21:22.565Z,1.60
2023-03-12T07:23:51.466Z,1.10
2023-03-12T07:28:47.983Z,2.80
2023-03-12T07:31:16.066Z,1.50
2023-03-12T07:33:44.587Z,1.30
2023-03-12T07:36:13.105Z,1.50
2023-03-12T07:38:41.233Z,1.20
2023-03-12T07:41:09.475Z,2.30
2023-03-12T07:43:37.734Z,1.20
2023-03-12T07:46:05.857Z,2.30
2023-03-12T07:48:34.168Z,1.70
2023-03-12T07:51:02.453Z,1.60
2023-03-12T07:53:30.632Z,1.70
2023-03-12T07:55:59.120Z,1.60
2023-03-12T07:58:27.566Z,1.10
2023-03-12T08:00:56.692Z,0.70
2023-03-12T08:03:25.018Z,1.00
2023-03-12T08:06:01.583Z,1.50
2023-03-12T08:08:31.389Z,1.20
2023-03-12T08:11:03.668Z,1.40
2023-03-12T08:13:31.789Z,2.20
2023-03-12T08:16:00.282Z,4.60
2023-03-12T08:18:28.924Z,1.60
2023-03-12T08:20:56.997Z,2.10
2023-03-12T08:23:25.480Z,1.80
2023-03-12T08:25:54.786Z,2.90
2023-03-12T08:28:24.423Z,2.70
2023-03-12T08:30:55.445Z,4.00
2023-03-12T08:33:23.484Z,3.60
2023-03-12T08:35:52.065Z,3.00
2023-03-12T08:38:20.396Z,2.10
2023-03-12T08:40:58.614Z,2.60
2023-03-12T08:43:29.393Z,3.30
2023-03-12T08:45:59.836Z,2.10
2023-03-12T08:48:30.413Z,3.30
2023-03-12T08:51:01.173Z,1.60
2023-03-12T08:53:29.389Z,1.10
2023-03-12T08:55:57.944Z,0.80
2023-03-12T08:58:26.689Z,1.00
2023-03-12T09:00:56.524Z,1.70
2023-03-12T09:03:26.470Z,1.50
2023-03-12T09:06:15.882Z,2.00
2023-03-12T09:08:44.870Z,1.50
2023-03-12T09:11:14.747Z,2.60
2023-03-12T09:14:03.942Z,2.30
2023-03-12T09:16:31.330Z,1.70
2023-03-12T09:18:59.491Z,1.70
2023-03-12T09:21:28.075Z,1.70
2023-03-12T09:23:56.770Z,1.80
2023-03-12T09:26:25.004Z,1.80
2023-03-12T09:28:53.431Z,1.90
2023-03-12T09:31:21.724Z,1.70
2023-03-12T09:33:50.030Z,2.10
2023-03-12T09:36:18.711Z,1.90
2023-03-12T09:38:46.888Z,2.00
2023-03-12T09:41:21.170Z,2.50
2023-03-12T09:43:54.424Z,1.20
2023-03-12T09:46:34.471Z,1.60
2023-03-12T09:49:11.492Z,1.60
2023-03-12T09:51:46.659Z,2.00
2023-03-12T09:55:10.448Z,1.50
2023-03-12T09:57:38.410Z,1.60
2023-03-12T10:00:12.389Z,0.90
2023-03-12T10:03:31.311Z,2.00
2023-03-12T10:06:09.148Z,2.50
2023-03-12T10:08:55.895Z,1.30
2023-03-12T10:11:40.090Z,1.50
2023-03-12T10:14:23.792Z,1.60
2023-03-12T10:17:27.961Z,1.70
2023-03-12T10:20:27.067Z,4.50
2023-03-12T10:23:07.360Z,2.40
2023-03-12T10:25:51.133Z,1.70
2023-03-12T10:28:28.397Z,1.10
2023-03-12T10:31:01.521Z,32.20
2023-03-12T10:33:55.799Z,8.20
2023-03-12T10:36:39.249Z,1.40
2023-03-12T10:39:19.167Z,2.60
2023-03-12T10:41:49.262Z,2.50
2023-03-12T10:44:23.405Z,6.10
2023-03-12T10:47:08.205Z,6.10
2023-03-12T10:49:38.179Z,6.80
2023-03-12T10:52:16.957Z,4.70
2023-03-12T10:54:48.256Z,2.10
2023-03-12T10:57:18.862Z,4.60
2023-03-12T10:59:48.824Z,3.50
2023-03-12T11:02:43.282Z,4.90
2023-03-12T11:05:25.824Z,2.00
2023-03-12T11:07:54.318Z,2.70
2023-03-12T11:10:48.370Z,4.60
2023-03-12T11:13:40.777Z,4.20
2023-03-12T11:16:18.101Z,2.40
2023-03-12T11:19:26.447Z,2.90
2023-03-12T11:22:08.364Z,3.20
2023-03-12T11:24:36.544Z,2.30
2023-03-12T11:27:21.297Z,2.10
2023-03-12T11:29:50.808Z,3.30
2023-03-12T11:32:33.064Z,2.10
2023-03-12T11:35:02.253Z,2.40
2023-03-12T11:37:50.370Z,1.90
2023-03-12T11:40:58.003Z,1.60
2023-03-12T11:43:42.711Z,2.10
2023-03-12T11:46:33.382Z,3.70
2023-03-12T11:49:20.838Z,2.30
2023-03-12T11:52:07.653Z,11.10
2023-03-12T11:55:00.675Z,2.10
2023-03-12T11:57:35.223Z,3.70
2023-03-12T12:00:17.508Z,2.80
2023-03-12T12:03:25.528Z,2.60
2023-03-12T12:06:08.043Z,2.60
2023-03-12T12:08:42.676Z,2.80
2023-03-12T12:11:22.598Z,4.00
2023-03-12T12:14:02.940Z,1.70
2023-03-12T12:16:56.491Z,5.10
2023-03-12T12:19:47.619Z,3.80
2023-03-12T12:22:36.422Z,3.00
2023-03-12T12:25:22.961Z,1.80
2023-03-12T12:27:54.112Z,2.30
2023-03-12T12:31:03.988Z,2.20
2023-03-12T12:33:53.560Z,1.90
2023-03-12T12:36:23.192Z,2.00
2023-03-12T12:39:06.197Z,3.50
2023-03-12T12:41:38.695Z,3.70
2023-03-12T12:44:13.101Z,2.10
2023-03-12T12:47:07.895Z,3.00
2023-03-12T12:49:43.983Z,2.90
2023-03-12T12:52:21.256Z,1.80
2023-03-12T12:55:01.334Z,2.70
2023-03-12T12:57:35.390Z,4.40
2023-03-12T13:00:38.437Z,3.70
2023-03-12T13:03:07.543Z,2.10
2023-03-12T13:05:38.486Z,2.10
2023-03-12T13:08:08.864Z,3.20
2023-03-12T13:10:52.929Z,4.40
2023-03-12T13:13:30.843Z,1.90
2023-03-12T13:16:36.227Z,1.40
2023-03-12T13:19:16.304Z,2.20
2023-03-12T13:22:04.641Z,2.40
2023-03-12T13:24:46.856Z,2.80
2023-03-12T13:27:25.743Z,2.30
2023-03-12T13:29:57.491Z,1.50
2023-03-12T13:32:35.280Z,3.50
2023-03-12T13:35:15.828Z,2.70
2023-03-12T13:37:46.980Z,2.10
2023-03-12T13:41:03.090Z,2.00
2023-03-12T13:43:40.168Z,2.20
2023-03-12T13:46:26.972Z,1.70
2023-03-12T13:48:59.878Z,1.90
2023-03-12T13:51:28.400Z,2.80
2023-03-12T13:54:00.552Z,2.00
2023-03-12T13:56:32.040Z,1.90
2023-03-12T13:59:01.702Z,2.30
2023-03-12T14:01:43.437Z,2.10
2023-03-12T14:04:18.655Z,2.10
2023-03-12T14:07:28.099Z,2.20
2023-03-12T14:10:20.731Z,2.60
2023-03-12T14:13:24.574Z,2.90
2023-03-12T14:16:05.046Z,2.10
2023-03-12T14:18:36.119Z,3.90
2023-03-12T14:21:09.943Z,2.70
2023-03-12T14:23:42.306Z,3.30
2023-03-12T14:26:20.822Z,2.50
2023-03-12T14:28:56.247Z,2.20
2023-03-12T14:31:25.747Z,2.30
2023-03-12T14:34:09.041Z,2.90
2023-03-12T14:36:47.457Z,3.40
2023-03-12T14:39:28.195Z,2.00
2023-03-12T14:42:00.844Z,2.50
2023-03-12T14:44:30.638Z,2.70
2023-03-12T14:47:12.696Z,2.90
2023-03-12T14:49:46.150Z,3.50
2023-03-12T14:52:27.830Z,3.00
2023-03-12T14:55:02.551Z,3.20
2023-03-12T14:57:30.836Z,3.80
2023-03-12T15:00:00.985Z,5.20
2023-03-12T15:02:31.713Z,11.10
2023-03-12T15:05:02.499Z,2.70
2023-03-12T15:07:35.346Z,13.10
2023-03-12T15:10:07.714Z,3.60
2023-03-12T15:12:38.147Z,55.10
2023-03-12T15:15:29.870Z,31.60
2023-03-12T15:17:59.251Z,8.40
2023-03-12T15:20:28.181Z,2.60
2023-03-12T15:22:57.367Z,3.20
2023-03-12T15:25:31.905Z,3.20
2023-03-12T15:28:04.941Z,3.50
2023-03-12T15:30:35.216Z,2.50
2023-03-12T15:33:08.581Z,4.60
2023-03-12T15:36:02.438Z,4.30
2023-03-12T15:38:33.726Z,5.20
2023-03-12T15:41:09.728Z,5.70
2023-03-12T15:43:38.084Z,6.20
2023-03-12T15:46:07.564Z,4.20
2023-03-12T15:48:40.123Z,3.20
2023-03-12T15:51:25.995Z,4.00
2023-03-12T15:54:22.027Z,5.10
2023-03-12T15:56:50.090Z,5.70
2023-03-12T15:59:28.638Z,6.50
2023-03-12T16:01:57.231Z,5.90
2023-03-12T16:04:26.057Z,7.00
2023-03-12T16:06:54.198Z,6.70
2023-03-12T16:09:27.239Z,9.90
2023-03-12T16:11:57.203Z,10.00
2023-03-12T16:14:32.970Z,9.00
2023-03-12T16:17:01.534Z,9.40
2023-03-12T16:19:33.362Z,6.90
2023-03-12T16:22:01.451Z,9.00
2023-03-12T16:24:29.759Z,8.60
2023-03-12T16:26:59.076Z,9.60
2023-03-12T16:29:36.191Z,9.00
2023-03-12T16:32:12.218Z,10.10
2023-03-12T16:34:41.217Z,9.30
2023-03-12T16:37:13.694Z,9.80
2023-03-12T16:39:44.331Z,8.70
2023-03-12T16:42:17.702Z,10.30
2023-03-12T16:44:46.759Z,10.00
2023-03-12T16:47:15.020Z,10.10
2023-03-12T16:49:44.245Z,9.70
2023-03-12T16:52:23.301Z,10.90
2023-03-12T16:54:52.495Z,10.70
2023-03-12T16:57:32.648Z,15.00
2023-03-12T17:00:02.602Z,13.60
2023-03-12T17:02:31.226Z,8.80
2023-03-12T17:04:59.779Z,22.30
2023-03-12T17:09:56.463Z,23.00
2023-03-12T17:12:35.763Z,25.70
2023-03-12T17:15:08.463Z,40.40
2023-03-12T17:17:36.651Z,31.90
2023-03-12T17:20:10.336Z,25.40
2023-03-12T17:22:38.621Z,23.60
2023-03-12T17:25:07.978Z,21.30
2023-03-12T17:27:36.291Z,20.80
2023-03-12T17:30:05.384Z,22.20
2023-03-12T17:32:33.476Z,40.60
2023-03-12T17:35:03.381Z,63.90
2023-03-12T17:37:31.571Z,66.60
2023-03-12T17:40:01.827Z,51.30
2023-03-12T17:42:31.505Z,71.70
2023-03-12T17:44:59.469Z,62.90
2023-03-12T17:47:30.828Z,48.70
2023-03-12T17:49:59.324Z,42.50
2023-03-12T17:52:27.400Z,50.30
2023-03-12T17:54:55.685Z,55.70
2023-03-12T17:57:25.198Z,54.60
2023-03-12T17:59:53.786Z,67.10
2023-03-12T18:02:22.404Z,61.50
2023-03-12T18:04:51.475Z,57.60
2023-03-12T18:09:47.727Z,44.30
2023-03-12T18:12:15.811Z,41.80
2023-03-12T18:14:44.400Z,28.20
2023-03-12T18:17:12.427Z,26.50
2023-03-12T18:19:40.760Z,30.40
2023-03-12T18:22:09.044Z,35.00
2023-03-12T18:24:37.124Z,35.20
2023-03-12T18:27:05.223Z,39.10
2023-03-12T18:29:35.655Z,31.90
2023-03-12T18:32:04.533Z,36.10
2023-03-12T18:34:32.622Z,35.40
2023-03-12T18:37:00.720Z,59.30
2023-03-12T18:39:28.874Z,56.70
2023-03-12T18:41:57.142Z,58.70
2023-03-12T18:44:25.233Z,56.50
2023-03-12T18:46:54.189Z,57.50
2023-03-12T18:49:22.320Z,48.30
2023-03-12T18:51:56.113Z,36.60
2023-03-12T18:54:26.596Z,46.60
2023-03-12T18:56:54.731Z,52.70
2023-03-12T18:59:22.799Z,43.70
2023-03-12T19:01:51.125Z,46.20
2023-03-12T19:04:20.213Z,43.30
2023-03-12T19:06:51.468Z,46.40
2023-03-12T19:09:20.865Z,48.00
2023-03-12T19:11:49.476Z,43.30
2023-03-12T19:16:45.596Z,40.10
2023-03-12T19:19:13.553Z,42.50
2023-03-12T19:21:41.864Z,34.50
2023-03-12T19:24:10.038Z,38.30
2023-03-12T19:26:38.020Z,37.50
2023-03-12T19:29:06.709Z,45.20
2023-03-12T19:31:34.932Z,37.10
2023-03-12T19:34:03.083Z,33.50
2023-03-12T19:36:31.249Z,31.30
2023-03-12T19:38:59.811Z,26.80
2023-03-12T19:41:30.280Z,25.50
2023-03-12T19:43:58.358Z,26.70
2023-03-12T19:46:29.095Z,21.30
2023-03-12T19:48:57.580Z,18.90
2023-03-12T19:51:26.379Z,14.50
2023-03-12T19:56:22.385Z,18.40
2023-03-12T19:58:50.602Z,24.60
2023-03-12T20:01:19.293Z,26.80
2023-03-12T20:03:47.281Z,51.90
2023-03-12T20:06:15.296Z,49.30
2023-03-12T20:08:44.804Z,55.40
2023-03-12T20:11:12.941Z,44.60
2023-03-12T20:13:41.025Z,41.30
2023-03-12T20:16:11.741Z,34.10
2023-03-12T20:18:40.142Z,42.90
2023-03-12T20:21:08.422Z,26.80
2023-03-12T20:23:36.542Z,29.80
2023-03-12T20:26:05.291Z,32.20
2023-03-12T20:28:33.357Z,34.70
2023-03-12T20:31:12.769Z,42.60
2023-03-12T20:33:41.622Z,35.60
2023-03-12T20:38:40.130Z,29.00
2023-03-12T20:41:15.537Z,33.30
2023-03-12T20:43:45.226Z,33.00
2023-03-12T20:46:14.057Z,28.20
2023-03-12T20:51:10.225Z,62.20
2023-03-12T20:53:38.332Z,58.30
2023-03-12T20:56:07.178Z,50.80
2023-03-12T20:58:35.354Z,43.60
2023-03-12T21:01:05.812Z,20.80
2023-03-12T21:03:34.217Z,19.90
2023-03-12T21:06:03.225Z,20.20
2023-03-12T21:08:31.497Z,22.60
2023-03-12T21:10:59.487Z,19.60
2023-03-12T21:13:27.554Z,18.70
2023-03-12T21:15:55.565Z,14.70
2023-03-12T21:18:25.090Z,15.30
2023-03-12T21:20:53.412Z,14.40
2023-03-12T21:23:21.594Z,14.30
2023-03-12T21:26:01.543Z,13.50
2023-03-12T21:28:31.028Z,12.90
2023-03-12T21:31:27.258Z,12.10
2023-03-12T21:33:57.167Z,17.20
2023-03-12T21:36:25.965Z,15.00
2023-03-12T21:38:54.452Z,21.70
2023-03-12T21:41:22.557Z,32.20
2023-03-12T21:43:50.556Z,30.60
2023-03-12T21:46:20.963Z,30.10
2023-03-12T21:48:49.275Z,28.80
2023-03-12T21:51:18.556Z,23.10
2023-03-12T21:53:46.828Z,22.80
2023-03-12T21:56:15.114Z,19.50
2023-03-12T21:58:44.420Z,17.70
2023-03-12T22:01:18.532Z,18.00
2023-03-12T22:03:47.525Z,13.10
2023-03-12T22:06:16.545Z,11.00
2023-03-12T22:08:48.176Z,10.90
2023-03-12T22:11:16.899Z,10.60
2023-03-12T22:13:45.604Z,12.50
2023-03-12T22:18:44.252Z,12.60
2023-03-12T22:21:20.615Z,13.10
2023-03-12T22:23:52.362Z,14.50
2023-03-12T22:26:22.546Z,12.10
2023-03-12T22:28:53.275Z,14.40
2023-03-12T22:31:23.130Z,11.50
2023-03-12T22:33:51.659Z,8.20
2023-03-12T22:36:20.994Z,9.30
2023-03-12T22:38:49.949Z,8.50
2023-03-12T22:41:26.811Z,10.80
2023-03-12T22:43:56.659Z,12.50
2023-03-12T22:46:27.544Z,9.10
2023-03-12T22:48:58.566Z,17.00
2023-03-12T22:51:28.460Z,20.40
2023-03-12T22:53:56.515Z,17.40
2023-03-12T22:56:25.251Z,14.60
2023-03-12T23:01:23.680Z,13.80
2023-03-12T23:03:52.224Z,14.50
2023-03-12T23:06:23.500Z,17.30
2023-03-12T23:08:52.779Z,17.00
2023-03-12T23:11:21.184Z,15.40
2023-03-12T23:13:49.963Z,10.50
2023-03-12T23:16:20.688Z,10.40
2023-03-12T23:18:49.411Z,11.20
2023-03-12T23:21:22.939Z,10.50
2023-03-12T23:23:52.241Z,12.30
2023-03-12T23:26:23.474Z,9.80
2023-03-12T23:28:53.501Z,10.80
2023-03-12T23:31:22.288Z,13.30
2023-03-12T23:38:49.924Z,12.80
2023-03-12T23:41:21.022Z,16.30
2023-03-12T23:43:49.954Z,15.80
2023-03-12T23:48:47.061Z,14.60
2023-03-12T23:51:20.469Z,14.60
2023-03-12T23:53:50.832Z,13.10
2023-03-12T23:56:21.845Z,15.20
2023-03-12T23:58:51.586Z,15.00
